createdAt,value
2022-12-05T00:02:03.857Z,10.35
2022-12-05T00:04:31.376Z,10.43
2022-12-05T00:07:00.146Z,10.50
2022-12-05T00:09:27.534Z,9.43
2022-12-05T00:11:54.948Z,9.77
2022-12-05T00:14:22.311Z,9.52
2022-12-05T00:16:49.772Z,9.70
2022-12-05T00:19:17.254Z,9.32
2022-12-05T00:21:45.191Z,10.00
2022-12-05T00:24:15.101Z,10.43
2022-12-05T00:29:10.857Z,8.82
2022-12-05T00:31:38.957Z,9.50
2022-12-05T00:34:06.450Z,9.60
2022-12-05T00:36:35.165Z,10.00
2022-12-05T00:39:03.546Z,9.07
2022-12-05T00:41:32.278Z,9.50
2022-12-05T00:44:01.791Z,9.70
2022-12-05T00:46:30.044Z,9.07
2022-12-05T00:48:58.722Z,9.60
2022-12-05T00:51:28.298Z,9.85
2022-12-05T00:53:56.203Z,9.30
2022-12-05T00:56:24.263Z,8.77
2022-12-05T00:58:54.044Z,8.45
2022-12-05T01:01:22.890Z,8.82
2022-12-05T01:03:52.076Z,8.65
2022-12-05T01:06:19.497Z,9.13
2022-12-05T01:08:46.922Z,9.70
2022-12-05T01:11:16.195Z,9.05
2022-12-05T01:13:43.936Z,9.25
2022-12-05T01:16:16.095Z,9.07
2022-12-05T01:18:43.501Z,9.38
2022-12-05T01:21:10.948Z,9.95
2022-12-05T01:23:38.454Z,9.52
2022-12-05T01:26:07.152Z,10.43
2022-12-05T01:28:34.819Z,9.75
2022-12-05T01:31:05.128Z,9.13
2022-12-05T01:33:34.213Z,8.52
2022-12-05T01:36:01.764Z,10.60
2022-12-05T01:38:29.297Z,9.00
2022-12-05T01:41:03.286Z,8.93
2022-12-05T01:43:30.826Z,9.38
2022-12-05T01:48:36.220Z,9.90
2022-12-05T01:51:03.792Z,8.75
2022-12-05T01:53:31.463Z,8.75
2022-12-05T01:55:58.845Z,9.13
2022-12-05T01:58:29.276Z,9.25
2022-12-05T02:00:56.722Z,9.85
2022-12-05T02:03:24.214Z,9.00
2022-12-05T02:05:54.593Z,8.60
2022-12-05T02:08:22.246Z,8.77
2022-12-05T02:10:50.676Z,8.93
2022-12-05T02:13:33.403Z,9.23
2022-12-05T02:16:02.222Z,8.32
2022-12-05T02:18:35.693Z,8.45
2022-12-05T02:21:11.904Z,8.07
2022-12-05T02:23:53.307Z,9.25
2022-12-05T02:26:38.460Z,8.65
2022-12-05T02:29:14.914Z,8.45
2022-12-05T02:31:47.611Z,7.95
2022-12-05T02:34:17.189Z,8.20
2022-12-05T02:36:46.635Z,8.25
2022-12-05T02:39:16.413Z,8.80
2022-12-05T02:41:48.610Z,8.02
2022-12-05T02:44:19.098Z,7.38
2022-12-05T02:46:49.034Z,7.93
2022-12-05T02:51:46.606Z,7.85
2022-12-05T02:54:16.296Z,6.88
2022-12-05T02:56:45.190Z,6.75
2022-12-05T02:59:12.631Z,6.82
2022-12-05T03:01:40.135Z,7.28
2022-12-05T03:04:11.300Z,12.13
2022-12-05T03:06:40.277Z,6.22
2022-12-05T03:09:10.167Z,6.50
2022-12-05T03:14:07.435Z,6.47
2022-12-05T03:16:37.640Z,5.40
2022-12-05T03:19:07.945Z,6.85
2022-12-05T03:21:38.065Z,6.22
2022-12-05T03:24:08.393Z,6.55
2022-12-05T03:26:44.991Z,6.18
2022-12-05T03:29:20.711Z,5.55
2022-12-05T03:31:53.552Z,5.38
2022-12-05T03:34:26.905Z,5.38
2022-12-05T03:36:55.655Z,6.72
2022-12-05T03:39:24.402Z,5.20
2022-12-05T03:41:58.201Z,5.85
2022-12-05T03:44:29.320Z,5.72
2022-12-05T03:47:01.409Z,5.32
2022-12-05T03:49:34.102Z,5.40
2022-12-05T03:52:05.291Z,5.70
2022-12-05T03:54:35.700Z,5.85
2022-12-05T03:57:04.952Z,5.05
2022-12-05T03:59:35.686Z,5.13
2022-12-05T04:02:06.048Z,5.18
2022-12-05T04:04:35.366Z,5.15
2022-12-05T04:07:05.647Z,4.90
2022-12-05T04:09:36.113Z,4.97
2022-12-05T04:12:06.097Z,5.22
2022-12-05T04:17:06.155Z,4.22
2022-12-05T04:19:51.685Z,4.28
2022-12-05T04:22:20.964Z,4.75
2022-12-05T04:25:07.223Z,4.30
2022-12-05T04:27:38.746Z,4.15
2022-12-05T04:30:07.438Z,4.28
2022-12-05T04:32:38.625Z,4.05
2022-12-05T04:35:09.933Z,4.13
2022-12-05T04:37:41.048Z,3.95
2022-12-05T04:40:10.706Z,4.20
2022-12-05T04:42:39.807Z,3.90
2022-12-05T04:45:09.059Z,3.47
2022-12-05T04:47:38.242Z,3.47
2022-12-05T04:50:07.566Z,4.07
2022-12-05T04:52:35.128Z,3.50
2022-12-05T04:55:07.153Z,4.00
2022-12-05T04:57:36.586Z,3.90
2022-12-05T05:00:04.831Z,3.63
2022-12-05T05:02:33.896Z,3.50
2022-12-05T05:05:03.318Z,3.25
2022-12-05T05:07:30.754Z,3.35
2022-12-05T05:09:58.473Z,3.75
2022-12-05T05:12:27.515Z,3.78
2022-12-05T05:14:54.947Z,3.40
2022-12-05T05:17:22.353Z,3.63
2022-12-05T05:19:49.768Z,3.60
2022-12-05T05:22:17.188Z,3.50
2022-12-05T05:24:44.558Z,3.60
2022-12-05T05:27:11.966Z,3.63
2022-12-05T05:29:40.798Z,3.50
2022-12-05T05:32:08.169Z,3.58
2022-12-05T05:34:35.613Z,3.65
2022-12-05T05:37:03.007Z,3.83
2022-12-05T05:39:30.396Z,3.08
2022-12-05T05:41:57.816Z,2.97
2022-12-05T05:44:25.220Z,3.38
2022-12-05T05:46:54.608Z,3.65
2022-12-05T05:49:22.392Z,3.45
2022-12-05T05:51:49.818Z,3.47
2022-12-05T05:54:17.245Z,3.75
2022-12-05T05:56:44.680Z,3.45
2022-12-05T05:59:12.088Z,3.50
2022-12-05T06:01:39.517Z,3.50
2022-12-05T06:04:08.511Z,3.20
2022-12-05T06:06:36.055Z,3.67
2022-12-05T06:09:03.466Z,3.38
2022-12-05T06:11:30.889Z,3.17
2022-12-05T06:14:00.934Z,3.03
2022-12-05T06:16:28.724Z,3.30
2022-12-05T06:18:56.279Z,3.47
2022-12-05T06:21:25.038Z,3.33
2022-12-05T06:23:52.891Z,3.45
2022-12-05T06:26:21.381Z,3.17
2022-12-05T06:28:49.258Z,3.40
2022-12-05T06:31:17.782Z,3.15
2022-12-05T06:33:45.441Z,4.05
2022-12-05T06:36:14.806Z,3.58
2022-12-05T06:38:44.099Z,3.75
2022-12-05T06:41:12.475Z,2.67
2022-12-05T06:43:39.876Z,2.85
2022-12-05T06:46:07.946Z,3.60
2022-12-05T06:48:35.964Z,3.17
2022-12-05T06:51:03.380Z,3.88
2022-12-05T06:53:30.869Z,4.22
2022-12-05T06:56:00.522Z,4.65
2022-12-05T06:58:28.169Z,4.28
2022-12-05T07:01:13.724Z,4.43
2022-12-05T07:03:43.880Z,4.00
2022-12-05T07:06:11.299Z,3.90
2022-12-05T07:08:39.018Z,3.50
2022-12-05T07:11:07.999Z,3.67
2022-12-05T07:13:35.411Z,4.23
2022-12-05T07:16:02.866Z,3.90
2022-12-05T07:18:30.302Z,3.72
2022-12-05T07:21:13.948Z,3.97
2022-12-05T07:23:41.962Z,4.10
2022-12-05T07:26:11.410Z,4.75
2022-12-05T07:28:38.831Z,5.13
2022-12-05T07:31:07.376Z,4.32
2022-12-05T07:33:34.866Z,4.72
2022-12-05T07:36:02.662Z,5.43
2022-12-05T07:38:30.527Z,4.68
2022-12-05T07:40:58.062Z,4.40
2022-12-05T07:43:26.785Z,3.78
2022-12-05T07:45:54.321Z,4.10
2022-12-05T07:48:22.088Z,4.80
2022-12-05T07:50:49.482Z,4.65
2022-12-05T07:53:16.865Z,4.53
2022-12-05T07:55:44.273Z,4.60
2022-12-05T07:58:11.925Z,4.28
2022-12-05T08:00:40.697Z,3.85
2022-12-05T08:03:08.128Z,3.70
2022-12-05T08:05:35.567Z,4.00
2022-12-05T08:08:03.030Z,3.80
2022-12-05T08:10:31.180Z,4.18
2022-12-05T08:12:58.699Z,4.65
2022-12-05T08:15:26.350Z,4.40
2022-12-05T08:17:55.086Z,3.97
2022-12-05T08:20:22.503Z,4.25
2022-12-05T08:22:52.411Z,4.10
2022-12-05T08:27:47.084Z,3.72
2022-12-05T08:30:14.610Z,3.78
2022-12-05T08:32:42.016Z,4.07
2022-12-05T08:35:11.135Z,4.63
2022-12-05T08:37:38.550Z,4.13
2022-12-05T08:40:06.620Z,4.13
2022-12-05T08:42:34.032Z,4.07
2022-12-05T08:45:01.455Z,4.28
2022-12-05T08:47:29.448Z,6.75
2022-12-05T08:49:58.501Z,4.05
2022-12-05T08:52:27.418Z,4.07
2022-12-05T08:54:54.816Z,4.10
2022-12-05T08:57:22.238Z,4.20
2022-12-05T08:59:49.644Z,4.97
2022-12-05T09:02:17.130Z,6.60
2022-12-05T09:04:47.273Z,5.35
2022-12-05T09:07:16.957Z,5.70
2022-12-05T09:09:45.804Z,5.00
2022-12-05T09:12:13.282Z,5.05
2022-12-05T09:14:40.669Z,5.05
2022-12-05T09:17:08.386Z,5.53
2022-12-05T09:19:35.792Z,5.90
2022-12-05T09:22:03.197Z,5.40
2022-12-05T09:24:30.627Z,5.57
2022-12-05T09:26:59.368Z,5.35
2022-12-05T09:29:29.416Z,6.15
2022-12-05T09:31:56.814Z,12.10
2022-12-05T09:34:25.967Z,7.47
2022-12-05T09:37:05.690Z,5.03
2022-12-05T09:39:38.087Z,4.65
2022-12-05T09:42:21.579Z,4.15
2022-12-05T09:44:57.815Z,4.68
2022-12-05T09:47:30.669Z,4.30
2022-12-05T09:49:59.655Z,4.22
2022-12-05T09:52:28.806Z,4.53
2022-12-05T09:54:56.724Z,4.22
2022-12-05T09:57:33.684Z,3.85
2022-12-05T10:00:03.557Z,4.43
2022-12-05T10:02:36.520Z,4.53
2022-12-05T10:05:07.519Z,4.93
2022-12-05T10:07:38.956Z,4.55
2022-12-05T10:10:20.461Z,4.50
2022-12-05T10:12:54.106Z,4.88
2022-12-05T10:15:26.131Z,4.63
2022-12-05T10:17:55.383Z,4.35
2022-12-05T10:20:29.275Z,4.50
2022-12-05T10:22:59.798Z,4.40
2022-12-05T10:25:27.966Z,5.18
2022-12-05T10:27:58.837Z,5.55
2022-12-05T10:30:26.787Z,5.78
2022-12-05T10:32:55.478Z,4.88
2022-12-05T10:35:24.203Z,4.53
2022-12-05T10:37:52.921Z,4.82
2022-12-05T10:40:21.032Z,4.85
2022-12-05T10:42:49.399Z,4.78
2022-12-05T10:45:19.845Z,5.20
2022-12-05T10:47:47.672Z,5.43
2022-12-05T10:50:22.282Z,5.15
2022-12-05T10:52:49.820Z,4.78
2022-12-05T10:55:18.356Z,6.30
2022-12-05T10:57:50.367Z,5.15
2022-12-05T11:00:21.163Z,6.28
2022-12-05T11:02:49.220Z,5.75
2022-12-05T11:05:16.748Z,7.05
2022-12-05T11:07:48.359Z,6.32
2022-12-05T11:10:26.685Z,6.70
2022-12-05T11:13:02.295Z,5.78
2022-12-05T11:15:32.012Z,6.93
2022-12-05T11:18:17.738Z,6.28
2022-12-05T11:20:45.239Z,5.55
2022-12-05T11:23:33.573Z,5.72
2022-12-05T11:26:00.991Z,5.20
2022-12-05T11:28:36.272Z,5.88
2022-12-05T11:31:06.282Z,5.57
2022-12-05T11:33:34.793Z,6.00
2022-12-05T11:36:04.720Z,5.65
2022-12-05T11:43:42.859Z,4.70
2022-12-05T11:46:22.285Z,5.57
2022-12-05T11:48:58.310Z,6.13
2022-12-05T11:51:32.682Z,6.47
2022-12-05T11:54:06.229Z,6.82
2022-12-05T11:56:38.384Z,8.48
2022-12-05T11:59:17.146Z,8.80
2022-12-05T12:01:52.794Z,7.97
2022-12-05T12:04:29.605Z,9.75
2022-12-05T12:07:04.991Z,10.50
2022-12-05T12:09:36.905Z,9.82
2022-12-05T12:12:07.357Z,8.30
2022-12-05T12:14:38.018Z,8.68
2022-12-05T12:17:16.222Z,8.55
2022-12-05T12:19:49.603Z,9.50
2022-12-05T12:22:27.945Z,9.30
2022-12-05T12:25:01.087Z,9.40
2022-12-05T12:27:34.330Z,10.13
2022-12-05T12:30:04.278Z,9.85
2022-12-05T12:35:17.831Z,10.48
2022-12-05T12:37:53.269Z,10.43
2022-12-05T12:40:22.977Z,9.10
2022-12-05T12:42:56.571Z,9.60
2022-12-05T12:45:42.128Z,9.15
2022-12-05T12:48:15.097Z,9.10
2022-12-05T12:50:44.511Z,8.23
2022-12-05T12:53:30.809Z,9.10
2022-12-05T12:56:04.126Z,9.30
2022-12-05T12:58:40.339Z,8.75
2022-12-05T13:01:12.527Z,8.57
2022-12-05T13:03:46.088Z,8.82
2022-12-05T13:06:17.760Z,9.27
2022-12-05T13:08:46.821Z,8.93
2022-12-05T13:11:16.277Z,9.60
2022-12-05T13:13:45.375Z,10.45
2022-12-05T13:16:15.171Z,9.00
2022-12-05T13:18:42.584Z,10.25
2022-12-05T13:21:10.953Z,8.85
2022-12-05T13:23:45.390Z,9.40
2022-12-05T13:26:13.669Z,8.63
2022-12-05T13:28:48.666Z,10.93
2022-12-05T13:31:18.047Z,9.57
2022-12-05T13:33:46.802Z,9.73
2022-12-05T13:36:32.521Z,9.50
2022-12-05T13:39:18.463Z,9.77
2022-12-05T13:42:04.291Z,8.50
2022-12-05T13:44:36.066Z,7.90
2022-12-05T13:47:08.285Z,8.73
2022-12-05T13:49:38.903Z,8.27
2022-12-05T13:52:08.363Z,9.07
2022-12-05T13:54:36.705Z,9.30
2022-12-05T13:57:05.256Z,9.45
2022-12-05T13:59:57.168Z,8.98
2022-12-05T14:02:43.668Z,9.38
2022-12-05T14:08:46.770Z,11.48
2022-12-05T14:11:15.600Z,10.50
2022-12-05T14:13:45.055Z,11.32
2022-12-05T14:16:31.663Z,12.00
2022-12-05T14:19:01.527Z,11.65
2022-12-05T14:21:37.783Z,10.20
2022-12-05T14:24:08.563Z,8.82
2022-12-05T14:26:47.478Z,8.40
2022-12-05T14:29:21.731Z,8.38
2022-12-05T14:32:03.978Z,8.02
2022-12-05T14:34:32.663Z,8.05
2022-12-05T14:37:01.554Z,8.23
2022-12-05T14:39:34.320Z,7.70
2022-12-05T14:42:05.068Z,7.88
2022-12-05T14:44:33.324Z,7.90
2022-12-05T14:47:03.194Z,9.57
2022-12-05T14:52:01.593Z,9.68
2022-12-05T14:54:29.219Z,9.93
2022-12-05T14:57:03.831Z,10.35
2022-12-05T14:59:33.915Z,10.48
2022-12-05T15:02:02.470Z,11.95
2022-12-05T15:04:33.405Z,10.88
2022-12-05T15:07:03.266Z,11.57
2022-12-05T15:12:09.881Z,11.73
2022-12-05T15:14:42.591Z,14.88
2022-12-05T15:17:13.900Z,14.35
2022-12-05T15:19:45.546Z,16.60
2022-12-05T15:22:14.720Z,16.88
2022-12-05T15:24:42.171Z,17.45
2022-12-05T15:27:11.586Z,16.17
2022-12-05T15:29:41.123Z,16.38
2022-12-05T15:32:16.770Z,14.75
2022-12-05T15:34:46.433Z,14.80
2022-12-05T15:37:16.525Z,14.68
2022-12-05T15:39:54.522Z,14.38
2022-12-05T15:42:27.690Z,14.30
2022-12-05T15:45:11.314Z,15.30
2022-12-05T15:47:41.450Z,14.68
2022-12-05T15:50:15.582Z,15.60
2022-12-05T15:52:47.145Z,15.88
2022-12-05T15:55:16.150Z,14.20
2022-12-05T15:57:46.110Z,14.97
2022-12-05T16:02:45.096Z,22.65
2022-12-05T16:05:20.348Z,16.95
2022-12-05T16:07:48.126Z,18.90
2022-12-05T16:10:16.359Z,19.95
2022-12-05T16:12:44.126Z,22.80
2022-12-05T16:15:15.919Z,20.45
2022-12-05T16:17:47.519Z,23.10
2022-12-05T16:20:23.103Z,22.83
2022-12-05T16:22:51.502Z,20.08
2022-12-05T16:25:19.837Z,18.15
2022-12-05T16:27:57.350Z,19.25
2022-12-05T16:30:25.326Z,18.88
2022-12-05T16:33:00.663Z,16.70
2022-12-05T16:35:30.126Z,16.55
2022-12-05T16:38:04.066Z,17.40
2022-12-05T16:40:31.571Z,15.15
2022-12-05T16:43:02.119Z,14.20
2022-12-05T16:45:38.636Z,16.48
2022-12-05T16:48:15.280Z,22.85
2022-12-05T16:50:43.204Z,22.17
2022-12-05T16:53:16.453Z,25.75
2022-12-05T16:55:45.106Z,21.85
2022-12-05T16:58:14.266Z,20.58
2022-12-05T17:00:44.045Z,19.67
2022-12-05T17:03:33.568Z,14.60
2022-12-05T17:06:01.803Z,14.43
2022-12-05T17:08:29.454Z,14.30
2022-12-05T17:10:56.954Z,16.50
2022-12-05T17:13:24.809Z,15.95
2022-12-05T17:15:52.235Z,15.18
2022-12-05T17:18:26.534Z,13.32
2022-12-05T17:20:58.048Z,13.82
2022-12-05T17:23:25.569Z,13.63
2022-12-05T17:25:54.666Z,14.35
2022-12-05T17:28:22.490Z,16.80
2022-12-05T17:30:50.119Z,17.15
2022-12-05T17:33:18.545Z,17.65
2022-12-05T17:35:47.692Z,16.98
2022-12-05T17:38:15.192Z,15.77
2022-12-05T17:40:42.706Z,16.75
2022-12-05T17:43:12.197Z,15.38
2022-12-05T17:45:39.603Z,15.80
2022-12-05T17:48:07.163Z,15.65
2022-12-05T17:50:34.683Z,15.27
2022-12-05T17:53:07.370Z,12.27
2022-12-05T17:55:35.114Z,12.10
2022-12-05T17:58:02.627Z,12.70
2022-12-05T18:00:30.301Z,12.25
2022-12-05T18:03:00.206Z,13.80
2022-12-05T18:07:55.110Z,11.20
2022-12-05T18:10:24.366Z,12.13
2022-12-05T18:12:51.882Z,11.48
2022-12-05T18:15:19.369Z,11.52
2022-12-05T18:17:46.988Z,10.63
2022-12-05T18:20:15.786Z,11.48
2022-12-05T18:22:43.454Z,13.52
2022-12-05T18:25:11.418Z,13.05
2022-12-05T18:27:40.211Z,12.32
2022-12-05T18:30:09.037Z,12.77
2022-12-05T18:32:36.464Z,13.82
2022-12-05T18:35:09.895Z,15.52
2022-12-05T18:37:40.190Z,13.73
2022-12-05T18:40:08.590Z,13.80
2022-12-05T18:42:36.391Z,13.98
2022-12-05T18:45:05.868Z,13.88
2022-12-05T18:47:33.646Z,15.75
2022-12-05T18:50:02.612Z,19.15
2022-12-05T18:52:30.100Z,13.18
2022-12-05T18:55:15.836Z,9.20
2022-12-05T18:57:44.590Z,10.63
2022-12-05T19:00:14.060Z,12.77
2022-12-05T19:02:41.774Z,13.50
2022-12-05T19:05:09.466Z,14.18
2022-12-05T19:07:36.898Z,13.32
2022-12-05T19:10:04.557Z,15.25
2022-12-05T19:12:32.022Z,16.58
2022-12-05T19:14:59.682Z,14.88
2022-12-05T19:17:28.616Z,14.63
2022-12-05T19:19:57.254Z,14.77
2022-12-05T19:22:27.102Z,17.35
2022-12-05T19:27:21.830Z,16.73
2022-12-05T19:29:49.254Z,16.75
2022-12-05T19:32:16.685Z,18.15
2022-12-05T19:34:46.484Z,17.23
2022-12-05T19:37:13.966Z,17.13
2022-12-05T19:39:42.806Z,16.80
2022-12-05T19:42:10.297Z,15.82
2022-12-05T19:44:37.723Z,17.20
2022-12-05T19:47:05.154Z,17.00
2022-12-05T19:49:32.551Z,16.65
2022-12-05T19:52:01.309Z,15.27
2022-12-05T19:54:28.828Z,15.15
2022-12-05T19:56:58.448Z,15.48
2022-12-05T19:59:25.933Z,14.02
2022-12-05T20:01:53.474Z,14.75
2022-12-05T20:04:21.029Z,15.60
2022-12-05T20:06:49.146Z,14.68
2022-12-05T20:09:18.722Z,13.60
2022-12-05T20:11:52.674Z,13.65
2022-12-05T20:14:22.328Z,14.73
2022-12-05T20:16:52.343Z,15.65
2022-12-05T20:19:19.828Z,14.32
2022-12-05T20:21:47.226Z,15.02
2022-12-05T20:24:14.645Z,14.82
2022-12-05T20:26:44.793Z,15.65
2022-12-05T20:29:12.424Z,13.98
2022-12-05T20:31:42.064Z,15.10
2022-12-05T20:34:10.355Z,15.23
2022-12-05T20:36:37.906Z,12.77
2022-12-05T20:39:06.465Z,12.18
2022-12-05T20:41:34.185Z,13.07
2022-12-05T20:44:04.095Z,11.60
2022-12-05T20:48:59.172Z,13.43
2022-12-05T20:51:27.758Z,13.88
2022-12-05T20:53:58.024Z,16.98
2022-12-05T20:56:26.192Z,14.50
2022-12-05T20:58:55.691Z,14.05
2022-12-05T21:01:25.431Z,15.13
2022-12-05T21:03:53.388Z,14.35
2022-12-05T21:06:22.850Z,14.30
2022-12-05T21:08:50.944Z,13.50
2022-12-05T21:11:18.414Z,12.82
2022-12-05T21:13:46.067Z,13.18
2022-12-05T21:16:16.492Z,14.05
2022-12-05T21:18:46.856Z,13.63
2022-12-05T21:21:15.514Z,14.18
2022-12-05T21:23:43.332Z,14.60
2022-12-05T21:26:13.519Z,15.30
2022-12-05T21:28:41.007Z,15.68
2022-12-05T21:31:09.241Z,15.23
2022-12-05T21:33:36.692Z,18.27
2022-12-05T21:36:06.082Z,17.35
2022-12-05T21:38:33.883Z,17.85
2022-12-05T21:41:01.342Z,17.80
2022-12-05T21:43:29.212Z,17.98
2022-12-05T21:45:57.051Z,16.92
2022-12-05T21:48:25.148Z,16.92
2022-12-05T21:50:52.721Z,16.65
2022-12-05T21:53:21.824Z,16.30
2022-12-05T21:55:49.282Z,15.07
2022-12-05T21:58:16.673Z,15.60
2022-12-05T22:00:44.161Z,14.48
2022-12-05T22:03:14.642Z,13.38
2022-12-05T22:05:42.120Z,12.55
2022-12-05T22:08:09.607Z,10.10
2022-12-05T22:10:38.618Z,11.10
2022-12-05T22:13:06.025Z,10.83
2022-12-05T22:15:33.572Z,11.93
2022-12-05T22:18:01.114Z,12.40
2022-12-05T22:20:28.501Z,11.55
2022-12-05T22:22:55.935Z,11.52
2022-12-05T22:25:23.345Z,10.77
2022-12-05T22:27:52.098Z,11.77
2022-12-05T22:30:19.783Z,12.38
2022-12-05T22:32:47.205Z,11.77
2022-12-05T22:35:14.649Z,11.93
2022-12-05T22:37:42.043Z,11.35
2022-12-05T22:40:10.609Z,11.43
2022-12-05T22:42:37.999Z,9.50
2022-12-05T22:45:08.053Z,9.80
2022-12-05T22:47:35.442Z,10.20
2022-12-05T22:50:02.956Z,8.70
2022-12-05T22:52:30.373Z,8.23
2022-12-05T22:54:58.056Z,7.63
2022-12-05T22:57:25.597Z,6.68
2022-12-05T22:59:53.083Z,7.20
2022-12-05T23:02:21.892Z,8.77
2022-12-05T23:04:49.652Z,9.82
2022-12-05T23:07:17.522Z,9.27
2022-12-05T23:09:44.983Z,11.05
2022-12-05T23:12:12.763Z,10.20
2022-12-05T23:14:40.286Z,10.77
2022-12-05T23:17:07.810Z,9.23
2022-12-05T23:19:36.612Z,9.85
2022-12-05T23:22:04.088Z,9.27
2022-12-05T23:24:31.574Z,9.27
2022-12-05T23:26:59.010Z,9.27
2022-12-05T23:29:26.503Z,9.50
2022-12-05T23:31:54.037Z,9.20
2022-12-05T23:34:21.542Z,8.13
2022-12-05T23:36:50.757Z,8.15
2022-12-05T23:39:18.344Z,9.40
2022-12-05T23:41:46.688Z,7.88
2022-12-05T23:44:14.135Z,8.50
2022-12-05T23:46:41.651Z,7.60
2022-12-05T23:49:09.317Z,7.95
2022-12-05T23:51:40.156Z,7.43
2022-12-05T23:54:10.510Z,6.72
2022-12-05T23:56:38.561Z,7.78
2022-12-05T23:59:07.031Z,7.13
